Cashmere, Washington
Current Conditions -  °F | °C
As of 12:55 PM on Friday 28 Nov 2014 (Local Time) from KEAT Reporting Station
Overcast Overcast  
Wind Chill: 58°   Ceiling: 5500
Heat Index: 58°   Visibility: NA
Dew Point: 43°   Wind: 5mph
Humidity: 58%   Direction: 20°NNE
Pressure: 29.31"   Gusts: NA
Location:  47.52°N, 120.47°W
Report Text: KEAT 282055Z AUTO 02004KT BKN055 OVC070 14/06 A2931 RMK AO2 SLP923 T01440061 56031
Loading
Personal Weather Stations






























Interactive Weather Map New forecast layout! Learn more

10-Day Weather Forecast

Advertisements
Track Severe Weather on mobile